Time;durP1;ratioP1;P1;durP2;ratioP2;P2;SDS_P1;SDS_P2;PMS_P1;PMS_P2;Temp;Humidity;BMP_temperature;BMP_pressure;BME280_temperature;BME280_humidity;BME280_pressure;Samples;Min_cycle;Max_cycle;Signal;HPM_P1;HPM_P2
2022/07/30 00:01:11;;;;;;;6.38;4.05;;;19.10;96.40;;;;;;5032876;28;20025;-72
2022/07/30 00:03:37;;;;;;;7.47;3.88;;;19.20;96.40;;;;;;5051157;28;20388;-71
2022/07/30 00:06:03;;;;;;;14.95;4.65;;;19.10;96.50;;;;;;5050686;28;20022;-71
2022/07/30 00:08:29;;;;;;;8.27;4.13;;;19.10;96.60;;;;;;5032758;28;20029;-71
2022/07/30 00:10:55;;;;;;;8.65;4.30;;;19.10;96.60;;;;;;5050603;28;20440;-71
2022/07/30 00:13:21;;;;;;;7.53;4.32;;;19.00;96.70;;;;;;5050523;28;20029;-70
2022/07/30 00:15:47;;;;;;;7.70;4.10;;;19.00;96.80;;;;;;5050594;28;20485;-71
2022/07/30 00:18:13;;;;;;;8.23;4.03;;;19.00;96.80;;;;;;5050794;28;20036;-71
2022/07/30 00:20:39;;;;;;;9.13;4.22;;;19.00;96.90;;;;;;5050174;28;20033;-71
2022/07/30 00:23:05;;;;;;;10.45;4.00;;;19.00;96.90;;;;;;5050563;28;20032;-71
2022/07/30 00:25:31;;;;;;;7.57;4.63;;;18.90;96.90;;;;;;5050567;28;20473;-71
2022/07/30 00:27:57;;;;;;;5.75;3.95;;;18.80;97.00;;;;;;5050457;28;20032;-71
2022/07/30 00:30:23;;;;;;;8.00;4.60;;;18.80;97.20;;;;;;5032284;28;20025;-71
2022/07/30 00:32:50;;;;;;;8.15;4.35;;;18.80;97.10;;;;;;5050571;28;20036;-71
2022/07/30 00:35:16;;;;;;;6.47;4.28;;;18.80;97.20;;;;;;5032836;28;20485;-71
2022/07/30 00:37:42;;;;;;;9.95;4.10;;;18.70;97.30;;;;;;5032585;28;20028;-70
2022/07/30 00:40:09;;;;;;;9.60;4.18;;;18.70;97.30;;;;;;5032322;28;20363;-71
2022/07/30 00:42:43;;;;;;;7.32;4.20;;;18.70;97.40;;;;;;5050413;28;20036;-71
2022/07/30 00:45:10;;;;;;;8.18;4.55;;;18.60;97.40;;;;;;5050327;28;20044;-70
2022/07/30 00:47:36;;;;;;;7.85;4.20;;;18.60;97.50;;;;;;5050271;28;20425;-71
2022/07/30 00:50:04;;;;;;;10.30;4.50;;;18.60;97.50;;;;;;5050135;28;20025;-71
2022/07/30 00:52:31;;;;;;;9.82;4.53;;;18.60;97.50;;;;;;5052357;28;20071;-71
2022/07/30 00:54:58;;;;;;;6.75;3.95;;;18.50;97.60;;;;;;5035903;28;20063;-71
2022/07/30 00:57:27;;;;;;;8.68;3.83;;;18.50;97.60;;;;;;5053883;28;20053;-71
2022/07/30 00:59:54;;;;;;;7.25;4.00;;;18.50;97.60;;;;;;5053630;28;20059;-71
2022/07/30 01:02:20;;;;;;;7.15;4.00;;;18.40;97.70;;;;;;5053885;28;20033;-71
2022/07/30 01:04:47;;;;;;;6.70;4.10;;;18.40;97.70;;;;;;5053766;28;20440;-71
2022/07/30 01:07:12;;;;;;;7.88;3.63;;;18.40;97.80;;;;;;5053536;28;20109;-72
2022/07/30 01:09:38;;;;;;;6.93;4.05;;;18.40;97.80;;;;;;5053268;28;20472;-71
2022/07/30 01:12:06;;;;;;;5.90;3.63;;;18.40;97.80;;;;;;5053701;28;20016;-72
2022/07/30 01:14:36;;;;;;;6.47;3.90;;;18.30;97.90;;;;;;5035748;28;20485;-71
2022/07/30 01:17:03;;;;;;;8.50;4.00;;;18.30;97.80;;;;;;5053898;28;20083;-71
2022/07/30 01:19:54;;;;;;;9.18;4.40;;;18.30;97.80;;;;;;5053334;28;20559;-71
2022/07/30 01:22:24;;;;;;;6.43;4.00;;;18.30;97.80;;;;;;5035595;28;20535;-71
2022/07/30 01:25:07;;;;;;;7.28;3.92;;;18.20;97.90;;;;;;5053477;28;20394;-71
2022/07/30 01:27:47;;;;;;;7.53;4.40;;;18.20;97.90;;;;;;5035445;28;20025;-72
2022/07/30 01:30:17;;;;;;;8.85;4.63;;;18.20;98.00;;;;;;5035165;28;20037;-71
2022/07/30 01:32:45;;;;;;;7.63;4.60;;;18.10;98.00;;;;;;5035445;28;20029;-72
2022/07/30 01:35:13;;;;;;;8.88;4.68;;;18.10;98.10;;;;;;5053271;28;20032;-70
2022/07/30 01:37:41;;;;;;;8.05;5.55;;;18.10;98.20;;;;;;5035158;28;20060;-71
2022/07/30 01:40:08;;;;;;;10.95;5.05;;;18.10;98.30;;;;;;5052973;28;20433;-71
2022/07/30 01:42:36;;;;;;;8.02;4.88;;;18.10;98.30;;;;;;5035412;28;20477;-71
2022/07/30 01:45:03;;;;;;;7.60;4.88;;;18.10;98.40;;;;;;5035079;28;20048;-71
2022/07/30 01:47:31;;;;;;;10.52;5.38;;;18.00;98.40;;;;;;5052865;28;20103;-71
2022/07/30 01:50:00;;;;;;;9.65;5.22;;;18.00;98.40;;;;;;5034825;28;20304;-71
2022/07/30 01:52:29;;;;;;;12.23;5.47;;;18.10;98.50;;;;;;5034979;28;20032;-70
2022/07/30 01:54:59;;;;;;;9.40;5.88;;;18.00;98.50;;;;;;5034974;28;20029;-71
2022/07/30 01:57:25;;;;;;;11.68;6.60;;;18.00;98.90;;;;;;5018446;28;20082;-72
2022/07/30 01:59:57;;;;;;;10.30;5.78;;;18.00;98.60;;;;;;5034668;28;20036;-72
2022/07/30 02:02:24;;;;;;;11.50;6.03;;;18.00;98.60;;;;;;5035019;28;20029;-71
2022/07/30 02:04:50;;;;;;;9.73;5.82;;;17.90;98.70;;;;;;5034075;28;20029;-71
2022/07/30 02:07:23;;;;;;;9.13;5.03;;;17.90;98.70;;;;;;5034714;28;20040;-70
2022/07/30 02:10:14;;;;;;;8.63;5.25;;;17.90;98.80;;;;;;5034550;28;20025;-71
2022/07/30 02:12:54;;;;;;;10.48;5.18;;;17.90;98.80;;;;;;5034800;28;20505;-71
2022/07/30 02:15:27;;;;;;;8.80;5.18;;;17.90;98.70;;;;;;5034623;28;20440;-71
2022/07/30 02:18:12;;;;;;;12.85;5.20;;;17.90;98.80;;;;;;5052412;28;20033;-71
2022/07/30 02:20:42;;;;;;;8.30;4.75;;;17.90;98.80;;;;;;5034262;28;20029;-72
2022/07/30 02:23:11;;;;;;;8.32;4.80;;;17.90;98.90;;;;;;5034412;28;20119;-71
2022/07/30 02:25:43;;;;;;;8.35;5.20;;;17.80;98.90;;;;;;5034311;28;20037;-72
2022/07/30 02:28:13;;;;;;;8.20;4.50;;;17.80;98.90;;;;;;5034484;28;20064;-71
2022/07/30 02:30:50;;;;;;;7.35;5.00;;;17.80;99.00;;;;;;5033952;28;20044;-71
2022/07/30 02:33:21;;;;;;;9.45;5.03;;;17.70;99.00;;;;;;5034516;28;20028;-71
2022/07/30 02:35:52;;;;;;;7.57;4.65;;;17.80;99.10;;;;;;5034292;28;20037;-71
2022/07/30 02:38:20;;;;;;;8.45;4.70;;;17.70;99.10;;;;;;5051980;28;20563;-72
2022/07/30 02:40:47;;;;;;;8.65;5.13;;;17.80;99.00;;;;;;5034055;28;20456;-71
2022/07/30 02:43:15;;;;;;;11.95;5.25;;;17.80;99.00;;;;;;5033820;28;20405;-73
2022/07/30 02:45:43;;;;;;;10.65;5.35;;;17.80;98.80;;;;;;5034063;28;20032;-71
2022/07/30 02:48:10;;;;;;;;;;;17.70;98.90;;;;;;5034697;28;20412;-71
2022/07/30 02:50:38;;;;;;;8.32;4.88;;;17.70;99.00;;;;;;5033992;28;19958;-71
2022/07/30 02:53:08;;;;;;;8.05;5.40;;;17.70;99.00;;;;;;5034122;28;20452;-70
2022/07/30 02:55:37;;;;;;;10.23;5.70;;;17.70;99.10;;;;;;5033984;28;20039;-70
2022/07/30 02:58:05;;;;;;;9.50;5.27;;;17.60;99.20;;;;;;5033830;28;20132;-70
2022/07/30 03:00:32;;;;;;;9.68;4.95;;;17.60;99.20;;;;;;5033378;28;20272;-70
2022/07/30 03:02:58;;;;;;;8.45;5.40;;;17.60;99.20;;;;;;5034131;28;20032;-71
2022/07/30 03:05:26;;;;;;;8.57;5.20;;;17.60;99.20;;;;;;5052053;28;20096;-70
2022/07/30 03:07:58;;;;;;;9.85;6.15;;;17.60;99.20;;;;;;5034026;28;20029;-71
2022/07/30 03:10:26;;;;;;;10.20;5.55;;;17.50;99.50;;;;;;5034410;28;20040;-71
2022/07/30 03:12:55;;;;;;;7.15;5.03;;;17.50;99.30;;;;;;5033540;28;20025;-71
2022/07/30 03:15:21;;;;;;;8.57;5.15;;;17.50;99.40;;;;;;5050865;28;20025;-70
2022/07/30 03:17:51;;;;;;;8.50;5.20;;;17.50;99.30;;;;;;5033307;28;20127;-71
2022/07/30 03:20:21;;;;;;;9.23;5.47;;;17.50;99.50;;;;;;5033095;28;20032;-72
2022/07/30 03:22:51;;;;;;;8.43;4.88;;;17.50;99.60;;;;;;5033230;28;20036;-71
2022/07/30 03:25:28;;;;;;;8.10;4.95;;;17.40;99.60;;;;;;5051146;28;20044;-72
2022/07/30 03:27:59;;;;;;;8.05;4.93;;;17.40;99.60;;;;;;5033413;28;20020;-71
2022/07/30 03:30:27;;;;;;;7.90;4.90;;;17.40;99.50;;;;;;5033038;28;20021;-71
2022/07/30 03:32:55;;;;;;;7.15;5.05;;;17.30;99.60;;;;;;5033286;28;20021;-71
2022/07/30 03:35:25;;;;;;;9.05;5.00;;;17.30;99.60;;;;;;5033171;28;20485;-71
2022/07/30 03:37:54;;;;;;;8.80;5.15;;;17.20;99.70;;;;;;5033259;28;20025;-71
2022/07/30 03:40:20;;;;;;;12.05;5.00;;;17.20;99.80;;;;;;5032887;28;20029;-71
2022/07/30 03:42:48;;;;;;;8.07;4.90;;;17.20;99.90;;;;;;5032963;28;20033;-71
2022/07/30 03:45:18;;;;;;;9.15;4.82;;;17.20;99.90;;;;;;5033143;28;20040;-70
2022/07/30 03:47:46;;;;;;;8.05;4.95;;;17.20;99.90;;;;;;5016452;28;20036;-72
2022/07/30 03:50:14;;;;;;;9.05;5.00;;;17.20;99.90;;;;;;5032799;28;20029;-71
2022/07/30 03:52:41;;;;;;;11.40;5.97;;;17.20;99.90;;;;;;5033181;28;20028;-71
2022/07/30 03:55:11;;;;;;;9.40;5.72;;;17.20;99.90;;;;;;5032917;28;20035;-71
2022/07/30 03:58:00;;;;;;;8.73;4.70;;;17.20;99.90;;;;;;5043227;28;20021;-71
2022/07/30 04:00:31;;;;;;;9.88;4.80;;;17.20;99.90;;;;;;5032696;28;20489;-71
2022/07/30 04:02:57;;;;;;;10.77;5.05;;;17.20;99.90;;;;;;5032726;28;20116;-71
2022/07/30 04:05:52;;;;;;;9.82;5.45;;;17.20;99.90;;;;;;5043693;28;20033;-71
2022/07/30 04:08:21;;;;;;;7.47;5.38;;;17.10;99.90;;;;;;5032891;28;20052;-71
2022/07/30 04:10:48;;;;;;;7.63;4.95;;;17.10;99.90;;;;;;5032531;28;20025;-71
2022/07/30 04:13:16;;;;;;;7.00;5.20;;;17.10;99.90;;;;;;5050701;28;20029;-72
2022/07/30 04:16:00;;;;;;;7.10;5.20;;;17.10;99.90;;;;;;5032710;28;20392;-72
2022/07/30 04:18:30;;;;;;;7.10;5.05;;;17.20;99.90;;;;;;5032639;28;20040;-72
2022/07/30 04:20:58;;;;;;;8.38;5.60;;;17.20;99.90;;;;;;5032687;28;20124;-72
2022/07/30 04:23:24;;;;;;;8.23;5.28;;;17.20;99.90;;;;;;5016101;28;20425;-73
2022/07/30 04:25:50;;;;;;;7.88;5.30;;;17.20;99.90;;;;;;5032532;28;20057;-72
2022/07/30 04:28:18;;;;;;;8.55;5.35;;;17.20;99.90;;;;;;5036098;28;20025;-73
2022/07/30 04:30:45;;;;;;;10.23;6.07;;;17.20;99.90;;;;;;5036329;28;20036;-72
2022/07/30 04:33:13;;;;;;;9.82;5.78;;;17.20;99.90;;;;;;5036581;28;20464;-72
2022/07/30 04:35:57;;;;;;;11.18;6.25;;;17.20;99.90;;;;;;5054333;28;20044;-71
2022/07/30 04:38:30;;;;;;;11.07;5.63;;;17.20;99.90;;;;;;5036318;28;20033;-72
2022/07/30 04:40:56;;;;;;;9.02;6.10;;;17.30;99.90;;;;;;5054255;28;20033;-72
2022/07/30 04:43:23;;;;;;;7.63;5.57;;;17.20;99.90;;;;;;5036301;28;20059;-72
2022/07/30 04:45:49;;;;;;;9.77;5.18;;;17.20;99.90;;;;;;5036090;28;20032;-72
2022/07/30 04:48:15;;;;;;;8.02;5.18;;;17.30;99.90;;;;;;5036159;28;20086;-72
2022/07/30 04:50:45;;;;;;;8.70;6.07;;;17.30;99.90;;;;;;5053932;28;20029;-73
2022/07/30 04:53:15;;;;;;;9.50;6.10;;;17.40;99.90;;;;;;5036186;28;20037;-72
2022/07/30 04:55:49;;;;;;;8.13;5.80;;;17.40;99.90;;;;;;5020357;28;20036;-73
2022/07/30 04:58:19;;;;;;;14.90;8.50;;;17.50;99.90;;;;;;5036122;28;20503;-72
2022/07/30 05:00:46;;;;;;;11.10;7.75;;;17.50;99.90;;;;;;5035818;28;20037;-73
2022/07/30 05:03:16;;;;;;;12.55;6.97;;;17.60;99.90;;;;;;5035784;28;20057;-72
2022/07/30 05:05:50;;;;;;;16.48;9.55;;;17.60;99.90;;;;;;5035865;28;20420;-72
2022/07/30 05:08:16;;;;;;;15.52;10.60;;;17.70;99.90;;;;;;5035760;28;20048;-73
2022/07/30 05:10:43;;;;;;;16.98;10.45;;;17.80;99.90;;;;;;5035430;28;20025;-73
2022/07/30 05:13:13;;;;;;;16.13;10.52;;;17.90;99.90;;;;;;5035709;28;20702;-73
2022/07/30 05:15:40;;;;;;;19.98;12.88;;;17.90;99.90;;;;;;5035567;28;20025;-73
2022/07/30 05:18:08;;;;;;;;;;;18.00;99.90;;;;;;5036206;28;20025;-72
2022/07/30 05:20:39;;;;;;;29.27;15.65;;;18.00;99.90;;;;;;5035332;28;19908;-72
2022/07/30 05:23:18;;;;;;;23.33;15.38;;;18.00;99.90;;;;;;5035413;28;20032;-72
2022/07/30 05:25:52;;;;;;;34.72;17.42;;;17.90;99.90;;;;;;5035529;28;20443;-72
2022/07/30 05:28:37;;;;;;;33.05;18.17;;;17.90;99.90;;;;;;5035178;28;20025;-71
2022/07/30 05:31:09;;;;;;;42.03;21.20;;;17.90;99.90;;;;;;5053436;28;20025;-72
2022/07/30 05:33:36;;;;;;;46.00;22.70;;;17.90;99.90;;;;;;5035468;28;20064;-72
2022/07/30 05:36:03;;;;;;;47.05;24.35;;;17.90;99.90;;;;;;5035301;28;20056;-72
2022/07/30 05:38:29;;;;;;;41.20;25.15;;;17.90;99.90;;;;;;5034126;28;20532;-72
2022/07/30 05:41:21;;;;;;;48.33;26.70;;;17.90;99.90;;;;;;5014811;28;20111;-72
2022/07/30 05:44:00;;;;;;;50.33;27.52;;;17.90;99.90;;;;;;5035192;28;20032;-72
2022/07/30 05:46:28;;;;;;;57.20;30.33;;;17.90;99.90;;;;;;5052820;28;20021;-72
2022/07/30 05:48:53;;;;;;;73.88;36.45;;;17.90;99.90;;;;;;5034976;28;20028;-72
2022/07/30 05:51:20;;;;;;;66.72;34.95;;;17.90;99.90;;;;;;5035053;28;20059;-72
2022/07/30 05:53:47;;;;;;;71.60;36.30;;;17.80;99.90;;;;;;5035003;28;20025;-71
2022/07/30 05:56:32;;;;;;;65.95;36.58;;;17.80;99.90;;;;;;5034777;28;20489;-72
2022/07/30 05:59:05;;;;;;;60.53;33.35;;;17.80;99.90;;;;;;5034718;28;20033;-72
2022/07/30 06:01:57;;;;;;;59.30;33.58;;;17.70;99.90;;;;;;5052174;28;20115;-72
2022/07/30 06:04:31;;;;;;;55.90;34.78;;;17.70;99.90;;;;;;5019273;28;20038;-72
2022/07/30 06:07:02;;;;;;;62.40;35.15;;;17.70;99.90;;;;;;5034588;28;20021;-72
2022/07/30 06:09:28;;;;;;;62.80;35.35;;;17.70;99.90;;;;;;5034490;28;20029;-72
2022/07/30 06:11:54;;;;;;;58.85;34.65;;;17.70;99.90;;;;;;5034910;28;20025;-72
2022/07/30 06:14:20;;;;;;;57.00;35.08;;;17.70;99.90;;;;;;5052504;28;20046;-72
2022/07/30 06:16:46;;;;;;;57.40;36.92;;;17.70;99.90;;;;;;5034515;28;20120;-72
2022/07/30 06:19:12;;;;;;;55.40;35.85;;;17.70;99.90;;;;;;5034283;28;20116;-72
2022/07/30 06:21:42;;;;;;;46.00;29.67;;;17.70;99.90;;;;;;5034340;28;20024;-72
2022/07/30 06:24:11;;;;;;;56.70;32.72;;;17.70;99.90;;;;;;5034224;28;20033;-72
2022/07/30 06:26:43;;;;;;;48.80;30.10;;;17.70;99.90;;;;;;5055949;23;20049;-70
2022/07/30 06:29:10;;;;;;;51.03;29.58;;;17.70;99.90;;;;;;5050967;28;20558;-70
2022/07/30 06:31:38;;;;;;;42.60;24.65;;;17.70;99.90;;;;;;5050990;28;20115;-71
2022/07/30 06:34:06;;;;;;;37.40;23.25;;;17.70;99.90;;;;;;5051057;28;20029;-70
2022/07/30 06:36:37;;;;;;;34.10;22.50;;;17.70;99.90;;;;;;5050854;28;20033;-70
2022/07/30 06:39:14;;;;;;;39.70;25.83;;;17.70;99.90;;;;;;5050816;28;20520;-70
2022/07/30 06:42:00;;;;;;;47.05;31.23;;;17.80;99.90;;;;;;5051750;28;20146;-71
2022/07/30 06:44:40;;;;;;;43.08;29.27;;;17.80;99.90;;;;;;5050576;28;20068;-70
2022/07/30 06:47:08;;;;;;;46.92;31.52;;;17.80;99.90;;;;;;5051897;28;20424;-70
2022/07/30 06:49:38;;;;;;;54.20;34.30;;;17.90;99.90;;;;;;5050290;28;20519;-70
2022/07/30 06:52:06;;;;;;;53.38;33.75;;;17.90;99.90;;;;;;5050728;28;20067;-71
2022/07/30 06:54:33;;;;;;;44.80;30.33;;;17.90;99.90;;;;;;5050654;28;20029;-72
2022/07/30 06:57:09;;;;;;;36.33;26.70;;;17.90;99.90;;;;;;5050449;28;20040;-70
2022/07/30 06:59:35;;;;;;;32.30;24.33;;;18.00;99.90;;;;;;5050464;28;20106;-70
2022/07/30 07:02:21;;;;;;;33.90;25.48;;;18.10;99.90;;;;;;5051224;28;20132;-70
2022/07/30 07:05:01;;;;;;;38.85;29.63;;;18.20;99.90;;;;;;5050447;28;20037;-71
2022/07/30 07:07:27;;;;;;;37.70;26.27;;;18.30;99.90;;;;;;5033733;28;20075;-70
2022/07/30 07:09:53;;;;;;;33.65;24.20;;;18.30;99.90;;;;;;5051514;28;20440;-70
2022/07/30 07:12:38;;;;;;;35.17;25.63;;;18.30;99.90;;;;;;5050756;28;20401;-70
2022/07/30 07:15:05;;;;;;;35.05;27.15;;;18.40;99.90;;;;;;5050590;28;20032;-70
2022/07/30 07:17:32;;;;;;;32.85;23.58;;;18.40;99.90;;;;;;5050188;28;20063;-70
2022/07/30 07:20:04;;;;;;;29.30;21.02;;;18.40;99.90;;;;;;5051275;28;20036;-70
2022/07/30 07:22:44;;;;;;;28.13;21.83;;;18.40;99.90;;;;;;5066856;28;20467;-70
2022/07/30 07:25:12;;;;;;;30.92;22.33;;;18.50;99.90;;;;;;5051331;28;20049;-71
2022/07/30 07:27:39;;;;;;;27.27;18.83;;;18.60;99.90;;;;;;5049812;28;20091;-70
2022/07/30 07:30:06;;;;;;;28.05;19.42;;;18.60;99.90;;;;;;5066864;28;20409;-70
2022/07/30 07:32:35;;;;;;;21.15;15.43;;;18.60;99.90;;;;;;5051403;28;20024;-71
2022/07/30 07:35:02;;;;;;;23.23;17.15;;;18.70;99.90;;;;;;5066860;28;20037;-70
2022/07/30 07:37:29;;;;;;;20.13;15.98;;;18.70;99.90;;;;;;5049840;28;20120;-71
2022/07/30 07:39:55;;;;;;;24.15;16.92;;;18.70;99.90;;;;;;5049707;28;20143;-71
2022/07/30 07:42:22;;;;;;;22.42;16.15;;;18.70;99.90;;;;;;5049838;28;20041;-71
2022/07/30 07:44:49;;;;;;;23.40;16.10;;;18.70;99.90;;;;;;5049915;28;20032;-70
2022/07/30 07:47:16;;;;;;;24.23;16.20;;;18.70;99.90;;;;;;5049535;28;20070;-70
2022/07/30 07:49:53;;;;;;;20.23;15.30;;;18.70;99.90;;;;;;5049486;28;20513;-72
2022/07/30 07:52:19;;;;;;;23.65;17.40;;;18.70;99.90;;;;;;5051334;28;20086;-72
2022/07/30 07:54:45;;;;;;;18.30;14.90;;;18.80;99.90;;;;;;5050002;28;20025;-72
2022/07/30 07:57:11;;;;;;;20.17;13.20;;;18.80;99.90;;;;;;5049734;28;20075;-70
2022/07/30 07:59:40;;;;;;;18.30;13.00;;;18.80;99.90;;;;;;5049896;28;20047;-70
2022/07/30 08:02:07;;;;;;;17.25;13.23;;;18.90;99.90;;;;;;5053607;28;20362;-70
2022/07/30 08:04:49;;;;;;;17.23;11.75;;;18.90;99.90;;;;;;5056441;28;20374;-71
2022/07/30 08:07:35;;;;;;;15.98;11.48;;;18.90;99.90;;;;;;5057562;28;20397;-71
2022/07/30 08:10:34;;;;;;;14.45;9.45;;;19.00;99.90;;;;;;5012884;28;20513;-70
2022/07/30 08:13:22;;;;;;;15.40;10.93;;;19.10;99.90;;;;;;5057667;28;20043;-70
2022/07/30 08:16:09;;;;;;;20.73;11.65;;;19.10;99.90;;;;;;5016078;28;20032;-70
2022/07/30 08:18:53;;;;;;;14.77;11.30;;;19.20;99.90;;;;;;5056501;28;20086;-71
2022/07/30 08:21:40;;;;;;;17.20;10.30;;;19.20;99.90;;;;;;5056489;28;20061;-71
2022/07/30 08:24:07;;;;;;;17.10;11.05;;;19.30;99.90;;;;;;5056480;28;20039;-71
2022/07/30 08:26:33;;;;;;;20.45;11.30;;;19.30;99.90;;;;;;5056122;28;20029;-71
2022/07/30 08:29:00;;;;;;;17.42;11.25;;;19.30;99.90;;;;;;5056189;28;20033;-72
2022/07/30 08:31:25;;;;;;;20.25;11.20;;;19.40;99.90;;;;;;5056264;28;20051;-71
2022/07/30 08:33:51;;;;;;;15.07;9.63;;;19.40;99.90;;;;;;5056189;28;20095;-70
2022/07/30 08:36:18;;;;;;;11.98;8.90;;;19.40;99.90;;;;;;5072771;28;20039;-71
2022/07/30 08:38:44;;;;;;;18.88;11.45;;;19.40;99.90;;;;;;5057259;28;20397;-70
2022/07/30 08:41:11;;;;;;;13.48;10.00;;;19.50;99.90;;;;;;5056025;28;20446;-71
2022/07/30 08:43:38;;;;;;;14.98;8.05;;;19.50;99.90;;;;;;5072741;28;20059;-70
2022/07/30 08:46:09;;;;;;;12.32;8.55;;;19.60;99.90;;;;;;5055899;28;20049;-71
2022/07/30 08:48:59;;;;;;;14.02;8.77;;;19.60;99.90;;;;;;5048713;28;20032;-70
2022/07/30 08:51:25;;;;;;;14.02;9.13;;;19.60;99.90;;;;;;5039439;28;20035;-71
2022/07/30 08:54:22;;;;;;;12.98;9.43;;;19.70;99.90;;;;;;5072468;28;20521;-71
2022/07/30 08:56:48;;;;;;;11.65;7.45;;;19.70;99.90;;;;;;5056115;28;20032;-71
2022/07/30 08:59:16;;;;;;;15.40;8.57;;;19.80;99.90;;;;;;5055857;28;20086;-70
2022/07/30 09:01:43;;;;;;;13.43;8.15;;;19.80;99.90;;;;;;5057282;28;20545;-70
2022/07/30 09:04:09;;;;;;;12.13;8.43;;;19.90;99.90;;;;;;5057013;28;20501;-71
2022/07/30 09:06:36;;;;;;;13.73;9.07;;;19.90;99.80;;;;;;5056047;28;20393;-71
2022/07/30 09:09:03;;;;;;;;;;;20.00;99.40;;;;;;5039778;28;20033;-71
2022/07/30 09:11:32;;;;;;;13.57;7.50;;;20.00;99.40;;;;;;5055885;28;19912;-71
2022/07/30 09:14:10;;;;;;;12.63;7.90;;;20.00;99.30;;;;;;5053417;28;20060;-70
2022/07/30 09:16:37;;;;;;;;;;;20.00;98.80;;;;;;5053034;28;20033;-70
2022/07/30 09:19:15;;;;;;;10.35;7.00;;;20.10;98.50;;;;;;5052341;28;19935;-70
2022/07/30 09:21:41;;;;;;;16.43;8.77;;;20.10;98.60;;;;;;5052515;28;20115;-70
2022/07/30 09:24:19;;;;;;;8.68;6.25;;;20.20;98.30;;;;;;5037398;28;20323;-71
2022/07/30 09:27:08;;;;;;;15.35;8.00;;;20.20;98.30;;;;;;5053479;28;20048;-71
2022/07/30 09:30:00;;;;;;;11.70;6.18;;;20.20;97.80;;;;;;5053363;28;20040;-71
2022/07/30 09:32:53;;;;;;;12.35;6.60;;;20.20;97.60;;;;;;5053567;28;20520;-71
2022/07/30 09:35:38;;;;;;;8.40;5.30;;;20.30;97.70;;;;;;5053420;28;20087;-72
2022/07/30 09:38:11;;;;;;;12.60;7.53;;;20.40;97.50;;;;;;5053757;28;20485;-70
2022/07/30 09:41:20;;;;;;;11.65;6.32;;;20.40;97.40;;;;;;4991507;28;20046;-71
2022/07/30 09:43:51;;;;;;;9.55;6.90;;;20.40;96.40;;;;;;4991592;28;20066;-71
2022/07/30 09:46:45;;;;;;;11.65;5.97;;;20.50;95.80;;;;;;5033400;28;20087;-71
2022/07/30 09:49:16;;;;;;;9.45;6.15;;;20.50;95.50;;;;;;5051651;28;20565;-71
2022/07/30 09:51:42;;;;;;;11.07;5.47;;;20.60;95.70;;;;;;5035321;28;20028;-71
2022/07/30 09:54:08;;;;;;;9.45;5.15;;;20.60;95.90;;;;;;5068322;28;20329;-70
2022/07/30 09:56:34;;;;;;;11.50;5.35;;;20.60;95.30;;;;;;5068112;28;20029;-70
2022/07/30 09:59:00;;;;;;;13.65;4.82;;;20.70;95.20;;;;;;5068108;28;20494;-70
2022/07/30 10:01:29;;;;;;;9.68;4.18;;;20.70;94.30;;;;;;5068143;28;20398;-70
2022/07/30 10:04:28;;;;;;;10.02;4.38;;;20.80;93.70;;;;;;5052503;28;20067;-71
2022/07/30 10:07:02;;;;;;;10.30;4.38;;;20.80;92.80;;;;;;5051468;28;20047;-69
2022/07/30 10:09:35;;;;;;;8.20;3.92;;;20.80;92.90;;;;;;5051226;28;20025;-71
2022/07/30 10:12:04;;;;;;;8.95;4.18;;;20.90;92.70;;;;;;5034933;28;20120;-70
2022/07/30 10:14:37;;;;;;;7.78;3.67;;;20.90;92.10;;;;;;5051760;28;20389;-71
2022/07/30 10:17:04;;;;;;;7.57;3.28;;;20.90;91.90;;;;;;5051194;28;20116;-71
2022/07/30 10:19:33;;;;;;;6.18;3.13;;;20.90;91.70;;;;;;5051626;28;20060;-70
2022/07/30 10:22:17;;;;;;;11.15;6.03;;;20.90;91.60;;;;;;5052763;28;20098;-71
2022/07/30 10:25:03;;;;;;;9.38;4.13;;;21.00;90.50;;;;;;5051997;28;20039;-70
2022/07/30 10:27:47;;;;;;;6.82;3.53;;;21.10;90.60;;;;;;5052644;28;20133;-70
2022/07/30 10:30:26;;;;;;;5.68;3.08;;;21.00;90.10;;;;;;5051031;28;20424;-71
2022/07/30 10:32:52;;;;;;;4.90;3.05;;;21.00;89.50;;;;;;5052744;28;20034;-70
2022/07/30 10:35:18;;;;;;;7.85;3.40;;;21.10;89.30;;;;;;5052489;28;20417;-72
2022/07/30 10:37:48;;;;;;;6.47;3.33;;;21.10;88.80;;;;;;5052082;28;20032;-71
2022/07/30 10:40:17;;;;;;;8.73;4.35;;;21.10;89.30;;;;;;5052378;28;20056;-71
2022/07/30 10:43:13;;;;;;;7.43;3.20;;;21.10;89.50;;;;;;5052309;28;20083;-72
2022/07/30 10:45:58;;;;;;;9.57;2.90;;;21.20;89.70;;;;;;5051986;28;20037;-71
2022/07/30 10:48:24;;;;;;;6.97;3.03;;;21.20;90.30;;;;;;5052383;28;20107;-71
2022/07/30 10:50:56;;;;;;;9.73;3.72;;;21.30;89.40;;;;;;5051839;28;20029;-70
2022/07/30 10:53:47;;;;;;;4.65;2.63;;;21.30;89.10;;;;;;5051992;28;20025;-70
2022/07/30 10:56:21;;;;;;;5.93;2.60;;;21.30;89.20;;;;;;5051786;28;20082;-70
2022/07/30 10:59:01;;;;;;;4.25;2.55;;;21.40;88.60;;;;;;5051470;28;20056;-70
2022/07/30 11:01:46;;;;;;;6.13;2.40;;;21.40;87.10;;;;;;5051884;28;20452;-70
2022/07/30 11:04:19;;;;;;;8.20;2.97;;;21.40;86.50;;;;;;5051421;28;20039;-70
2022/07/30 11:06:46;;;;;;;5.13;2.40;;;21.40;87.60;;;;;;5051882;28;20095;-70
2022/07/30 11:09:44;;;;;;;6.35;2.63;;;21.40;87.90;;;;;;5051301;28;20025;-71
2022/07/30 11:12:10;;;;;;;9.40;4.40;;;21.40;88.10;;;;;;5047768;28;20056;-71
2022/07/30 11:14:45;;;;;;;6.60;4.00;;;21.50;88.40;;;;;;5051541;28;20425;-70
2022/07/30 11:17:18;;;;;;;8.80;2.50;;;21.50;87.80;;;;;;5051510;28;20028;-71
2022/07/30 11:20:08;;;;;;;8.57;3.67;;;21.60;86.40;;;;;;5051223;28;20029;-71
2022/07/30 11:22:39;;;;;;;7.40;3.17;;;21.70;85.00;;;;;;5066802;28;20029;-70
2022/07/30 11:25:07;;;;;;;8.30;3.10;;;21.70;84.60;;;;;;5051518;28;20029;-72
2022/07/30 11:27:40;;;;;;;7.82;3.05;;;21.70;84.50;;;;;;5051695;28;20076;-72
2022/07/30 11:30:15;;;;;;;6.07;3.10;;;21.80;84.40;;;;;;5050924;28;20212;-71
2022/07/30 11:32:43;;;;;;;8.43;2.80;;;21.90;84.00;;;;;;5051375;28;20028;-71
2022/07/30 11:35:27;;;;;;;5.40;3.35;;;21.90;82.70;;;;;;5051599;28;20033;-71
2022/07/30 11:38:10;;;;;;;6.68;2.95;;;22.00;83.30;;;;;;5050386;28;20040;-70
2022/07/30 11:40:40;;;;;;;5.45;3.10;;;22.00;82.60;;;;;;5050846;28;20040;-72
2022/07/30 11:43:24;;;;;;;6.32;2.90;;;21.90;83.50;;;;;;5051298;28;20033;-70
2022/07/30 11:46:11;;;;;;;9.32;3.70;;;21.90;84.20;;;;;;5050882;28;20028;-71
2022/07/30 11:48:39;;;;;;;6.53;3.10;;;22.00;84.30;;;;;;5050902;28;20432;-70
2022/07/30 11:51:05;;;;;;;5.90;3.17;;;22.00;84.40;;;;;;5051025;28;20383;-70
2022/07/30 11:53:31;;;;;;;3.83;2.35;;;21.90;84.10;;;;;;5050948;28;20040;-70
2022/07/30 11:56:02;;;;;;;6.05;2.70;;;21.90;84.80;;;;;;5051010;28;20032;-70
2022/07/30 11:58:31;;;;;;;7.95;2.83;;;22.00;82.90;;;;;;5049633;28;20029;-70
2022/07/30 12:01:04;;;;;;;8.73;3.22;;;22.10;83.10;;;;;;5051010;28;20033;-70
2022/07/30 12:03:30;;;;;;;7.57;2.85;;;22.30;82.70;;;;;;5050676;28;20039;-70
2022/07/30 12:06:25;;;;;;;7.75;2.70;;;22.40;83.00;;;;;;5050835;28;20039;-71
2022/07/30 12:08:52;;;;;;;6.28;2.75;;;22.40;83.30;;;;;;5050708;28;20025;-72
2022/07/30 12:11:19;;;;;;;7.20;3.00;;;22.40;81.30;;;;;;5050838;28;20116;-72
2022/07/30 12:13:56;;;;;;;5.82;2.70;;;22.40;80.20;;;;;;5050687;28;20037;-70
2022/07/30 12:16:22;;;;;;;7.13;3.05;;;22.40;79.40;;;;;;5049687;28;20191;-71
2022/07/30 12:18:48;;;;;;;4.97;3.13;;;22.50;78.20;;;;;;5050626;28;20094;-72
2022/07/30 12:21:15;;;;;;;4.43;2.60;;;22.50;78.00;;;;;;5051317;28;20053;-71
2022/07/30 12:23:42;;;;;;;5.22;2.47;;;22.50;77.60;;;;;;5051316;28;20063;-71
2022/07/30 12:26:23;;;;;;;3.83;1.80;;;22.50;77.50;;;;;;5065437;22;20025;-71
2022/07/30 12:28:49;;;;;;;4.28;2.45;;;22.50;77.20;;;;;;5050416;28;20033;-72
2022/07/30 12:31:16;;;;;;;4.57;2.28;;;22.50;77.40;;;;;;5050590;28;20484;-72
2022/07/30 12:33:42;;;;;;;6.15;2.50;;;22.50;76.80;;;;;;5050719;28;20029;-71
2022/07/30 12:36:09;;;;;;;6.35;3.33;;;22.60;77.50;;;;;;5050697;28;20098;-72
2022/07/30 12:38:47;;;;;;;5.03;2.70;;;22.60;77.50;;;;;;5050248;28;20108;-71
2022/07/30 12:41:14;;;;;;;7.95;3.50;;;22.60;77.30;;;;;;5032680;28;20032;-71
2022/07/30 12:43:53;;;;;;;4.38;2.70;;;22.70;77.20;;;;;;5050382;28;20029;-71
2022/07/30 12:46:20;;;;;;;3.75;2.15;;;22.70;78.00;;;;;;5050224;28;20079;-71
2022/07/30 12:49:00;;;;;;;5.78;2.47;;;22.70;78.40;;;;;;5052823;28;20024;-71
2022/07/30 12:51:31;;;;;;;3.03;2.00;;;22.90;78.10;;;;;;5036281;28;20124;-70
2022/07/30 12:53:58;;;;;;;4.68;2.30;;;22.90;78.00;;;;;;5054236;28;20103;-71
2022/07/30 12:56:26;;;;;;;4.07;2.33;;;22.90;78.50;;;;;;5036224;28;20420;-71
2022/07/30 12:58:54;;;;;;;5.97;3.10;;;22.90;79.10;;;;;;5053772;28;20542;-69
2022/07/30 13:01:42;;;;;;;4.78;1.90;;;22.90;81.40;;;;;;5035990;28;20485;-73
2022/07/30 13:04:08;;;;;;;;;;;22.90;89.80;;;;;;5054392;28;20040;-70